TAF Text Data
IDs:
Format:
Raw Decoded Include METAR

Data at: 1921 UTC 12 Dec 2018

KFMN 121853Z 12005KT 10SM CLR 06/M05 A2996 RMK AO2 SLP157 T00561050

KFMN 121741Z 1218/1318 12007KT P6SM SCT200
  FM122100 29011G19KT P6SM SCT200
  FM130000 30021G30KT P6SM BKN100
  FM130600 28025G35KT P6SM SCT100
  FM131200 28015G25KT P6SM SKC
  FM131500 27012KT P6SM SKC